createdAt,value
2022-09-30T00:01:34.127Z,100175.94
2022-09-30T00:04:02.503Z,100180.78
2022-09-30T00:06:31.298Z,100181.59
2022-09-30T00:08:59.540Z,100179.19
2022-09-30T00:11:29.659Z,100187.53
2022-09-30T00:13:58.767Z,100189.97
2022-09-30T00:16:29.782Z,100186.72
2022-09-30T00:18:58.513Z,100178.63
2022-09-30T00:21:26.719Z,100173.22
2022-09-30T00:23:54.810Z,100183.22
2022-09-30T00:26:24.212Z,100187.25
2022-09-30T00:28:53.227Z,100179.16
2022-09-30T00:31:21.879Z,100177.00
2022-09-30T00:34:06.781Z,100182.16
2022-09-30T00:36:35.901Z,100175.94
2022-09-30T00:39:05.703Z,100180.50
2022-09-30T00:41:33.654Z,100172.41
2022-09-30T00:44:03.051Z,100171.63
2022-09-30T00:46:34.935Z,100176.47
2022-09-30T00:49:11.179Z,100176.47
2022-09-30T00:51:42.428Z,100183.19
2022-09-30T00:54:11.694Z,100180.25
2022-09-30T00:56:41.974Z,100176.47
2022-09-30T00:59:12.135Z,100188.06
2022-09-30T01:01:41.573Z,100185.63
2022-09-30T01:04:13.922Z,100185.09
2022-09-30T01:06:42.267Z,100185.91
2022-09-30T01:09:11.374Z,100187.53
2022-09-30T01:11:39.663Z,100195.06
2022-09-30T01:14:10.313Z,100193.72
2022-09-30T01:16:48.182Z,100192.38
2022-09-30T01:19:44.228Z,100195.31
2022-09-30T01:22:36.819Z,100195.88
2022-09-30T01:25:24.453Z,100205.31
2022-09-30T01:28:13.465Z,100196.41
2022-09-30T01:30:56.455Z,100206.66
2022-09-30T01:33:33.495Z,100201.19
2022-09-30T01:36:10.542Z,100209.34
2022-09-30T01:38:46.623Z,100206.09
2022-09-30T01:41:22.644Z,100211.72
2022-09-30T01:43:58.302Z,100221.47
2022-09-30T01:46:32.269Z,100217.66
2022-09-30T01:49:08.411Z,100222.25
2022-09-30T01:51:39.389Z,100229.75
2022-09-30T01:54:13.987Z,100224.34
2022-09-30T01:56:43.855Z,100224.91
2022-09-30T01:59:16.075Z,100221.72
2022-09-30T02:01:49.775Z,100218.75
2022-09-30T02:04:20.694Z,100217.25
2022-09-30T02:06:52.811Z,100216.78
2022-09-30T02:09:23.842Z,100222.47
2022-09-30T02:11:53.058Z,100216.31
2022-09-30T02:14:25.023Z,100220.88
2022-09-30T02:16:56.687Z,100224.38
2022-09-30T02:19:28.902Z,100222.78
2022-09-30T02:22:03.063Z,100232.72
2022-09-30T02:24:37.194Z,100230.88
2022-09-30T02:27:08.141Z,100240.31
2022-09-30T02:29:38.929Z,100234.56
2022-09-30T02:32:13.213Z,100236.50
2022-09-30T02:34:42.589Z,100239.44
2022-09-30T02:37:14.301Z,100238.38
2022-09-30T02:39:45.054Z,100242.97
2022-09-30T02:42:15.387Z,100247.28
2022-09-30T02:44:43.429Z,100256.69
2022-09-30T02:47:16.780Z,100257.63
2022-09-30T02:49:48.730Z,100254.34
2022-09-30T02:52:25.365Z,100266.25
2022-09-30T02:55:03.014Z,100257.38
2022-09-30T02:57:36.826Z,100255.56
2022-09-30T03:00:11.819Z,100265.00
2022-09-30T03:02:42.391Z,100266.88
2022-09-30T03:05:10.619Z,100261.25
2022-09-30T03:07:38.908Z,100258.28
2022-09-30T03:10:14.237Z,100259.63
2022-09-30T03:12:53.870Z,100257.13
2022-09-30T03:15:30.193Z,100264.06
2022-09-30T03:18:12.821Z,100262.50
2022-09-30T03:20:47.661Z,100262.78
2022-09-30T03:23:26.221Z,100269.53
2022-09-30T03:25:59.417Z,100275.41
2022-09-30T03:28:30.449Z,100273.28
2022-09-30T03:31:05.544Z,100269.50
2022-09-30T03:33:43.148Z,100267.63
2022-09-30T03:36:16.765Z,100261.41
2022-09-30T03:38:49.436Z,100270.31
2022-09-30T03:41:21.946Z,100270.03
2022-09-30T03:43:51.950Z,100278.13
2022-09-30T03:46:22.833Z,100274.06
2022-09-30T03:48:55.128Z,100284.28
2022-09-30T03:51:24.845Z,100281.31
2022-09-30T03:53:53.245Z,100288.59
2022-09-30T03:56:26.856Z,100287.78
2022-09-30T03:58:54.898Z,100292.34
2022-09-30T04:01:23.194Z,100295.06
2022-09-30T04:03:53.278Z,100286.97
2022-09-30T04:06:22.897Z,100294.50
2022-09-30T04:08:50.733Z,100295.31
2022-09-30T04:11:18.610Z,100293.69
2022-09-30T04:13:46.349Z,100292.06
2022-09-30T04:16:14.136Z,100292.34
2022-09-30T04:18:42.253Z,100296.31
2022-09-30T04:21:14.037Z,100298.50
2022-09-30T04:23:42.697Z,100296.22
2022-09-30T04:26:13.123Z,100294.69
2022-09-30T04:28:40.857Z,100296.00
2022-09-30T04:31:08.767Z,100296.84
2022-09-30T04:33:36.512Z,100310.31
2022-09-30T04:36:05.248Z,100308.34
2022-09-30T04:38:34.473Z,100311.31
2022-09-30T04:41:05.305Z,100314.28
2022-09-30T04:43:34.149Z,100329.06
2022-09-30T04:46:02.374Z,100328.94
2022-09-30T04:48:31.268Z,100329.75
2022-09-30T04:51:00.112Z,100341.34
2022-09-30T04:53:28.144Z,100333.22
2022-09-30T04:56:01.260Z,100343.78
2022-09-30T04:58:33.433Z,100342.47
2022-09-30T05:01:04.482Z,100346.50
2022-09-30T05:03:32.395Z,100350.03
2022-09-30T05:06:00.182Z,100351.91
2022-09-30T05:08:27.914Z,100353.25
2022-09-30T05:10:57.189Z,100350.50
2022-09-30T05:13:27.340Z,100360.72
2022-09-30T05:15:55.076Z,100364.56
2022-09-30T05:18:23.467Z,100370.63
2022-09-30T05:20:51.798Z,100376.13
2022-09-30T05:23:19.929Z,100372.41
2022-09-30T05:25:48.433Z,100368.53
2022-09-30T05:28:16.170Z,100381.25
2022-09-30T05:30:45.802Z,100387.84
2022-09-30T05:33:14.689Z,100387.59
2022-09-30T05:35:43.379Z,100389.75
2022-09-30T05:38:11.859Z,100384.66
2022-09-30T05:40:40.518Z,100391.13
2022-09-30T05:43:08.667Z,100389.22
2022-09-30T05:45:36.414Z,100392.34
2022-09-30T05:48:06.921Z,100397.72
2022-09-30T05:50:34.998Z,100391.03
2022-09-30T05:53:04.561Z,100389.97
2022-09-30T05:55:35.821Z,100394.41
2022-09-30T05:58:06.777Z,100401.56
2022-09-30T06:00:34.482Z,100409.03
2022-09-30T06:03:04.073Z,100404.78
2022-09-30T06:05:33.156Z,100402.38
2022-09-30T06:08:00.872Z,100408.31
2022-09-30T06:10:28.738Z,100404.53
2022-09-30T06:12:59.041Z,100410.25
2022-09-30T06:15:27.123Z,100421.13
2022-09-30T06:17:54.896Z,100423.81
2022-09-30T06:20:22.787Z,100422.50
2022-09-30T06:22:52.092Z,100417.53
2022-09-30T06:25:19.918Z,100427.44
2022-09-30T06:27:47.729Z,100426.19
2022-09-30T06:30:15.577Z,100422.16
2022-09-30T06:32:43.929Z,100421.88
2022-09-30T06:35:11.940Z,100422.97
2022-09-30T06:37:39.893Z,100420.53
2022-09-30T06:40:10.580Z,100427.44
2022-09-30T06:42:38.299Z,100424.75
2022-09-30T06:45:07.056Z,100431.31
2022-09-30T06:47:34.807Z,100437.13
2022-09-30T06:50:07.042Z,100437.13
2022-09-30T06:52:36.003Z,100447.00
2022-09-30T06:55:06.076Z,100445.44
2022-09-30T06:57:35.852Z,100443.72
2022-09-30T07:00:06.359Z,100444.97
2022-09-30T07:02:35.829Z,100448.44
2022-09-30T07:05:04.894Z,100446.63
2022-09-30T07:07:35.869Z,100444.44
2022-09-30T07:10:08.212Z,100443.66
2022-09-30T07:12:37.643Z,100447.94
2022-09-30T07:15:09.168Z,100445.63
2022-09-30T07:17:39.203Z,100439.34
2022-09-30T07:20:08.162Z,100445.75
2022-09-30T07:22:37.189Z,100445.22
2022-09-30T07:25:06.961Z,100448.56
2022-09-30T07:27:37.358Z,100446.09
2022-09-30T07:30:13.333Z,100444.50
2022-09-30T07:32:44.167Z,100461.72
2022-09-30T07:35:12.404Z,100453.31
2022-09-30T07:37:40.592Z,100458.88
2022-09-30T07:40:09.799Z,100455.44
2022-09-30T07:42:44.706Z,100456.50
2022-09-30T07:45:19.232Z,100448.88
2022-09-30T07:47:51.189Z,100441.81
2022-09-30T07:50:21.147Z,100451.81
2022-09-30T07:52:48.889Z,100448.66
2022-09-30T07:55:16.761Z,100451.44
2022-09-30T07:57:45.854Z,100448.53
2022-09-30T08:00:37.881Z,100458.28
2022-09-30T08:03:02.966Z,100454.97
2022-09-30T08:05:30.697Z,100465.47
2022-09-30T08:07:58.393Z,100463.44
2022-09-30T08:10:26.212Z,100464.34
2022-09-30T08:12:58.031Z,100464.09
2022-09-30T08:15:27.810Z,100462.84
2022-09-30T08:17:55.522Z,100471.53
2022-09-30T08:20:23.268Z,100470.38
2022-09-30T08:22:53.469Z,100472.91
2022-09-30T08:25:21.265Z,100481.91
2022-09-30T08:27:49.177Z,100482.53
2022-09-30T08:30:18.527Z,100483.56
2022-09-30T08:32:46.240Z,100478.94
2022-09-30T08:35:13.953Z,100481.69
2022-09-30T08:37:41.761Z,100486.81
2022-09-30T08:40:15.829Z,100479.00
2022-09-30T08:42:54.220Z,100487.34
2022-09-30T08:45:32.634Z,100480.25
2022-09-30T08:48:06.956Z,100483.72
2022-09-30T08:50:39.106Z,100484.78
2022-09-30T08:53:10.931Z,100493.75
2022-09-30T08:55:42.279Z,100499.69
2022-09-30T08:58:17.748Z,100502.88
2022-09-30T09:00:46.845Z,100498.72
2022-09-30T09:03:15.292Z,100507.78
2022-09-30T09:05:52.423Z,100501.06
2022-09-30T09:08:27.377Z,100500.22
2022-09-30T09:11:00.863Z,100502.78
2022-09-30T09:13:43.020Z,100497.56
2022-09-30T09:16:16.880Z,100505.13
2022-09-30T09:18:55.069Z,100504.31
2022-09-30T09:21:24.979Z,100500.78
2022-09-30T09:23:54.312Z,100508.13
2022-09-30T09:26:22.136Z,100506.41
2022-09-30T09:29:00.901Z,100496.47
2022-09-30T09:31:32.402Z,100499.41
2022-09-30T09:34:03.099Z,100498.38
2022-09-30T09:36:44.070Z,100504.84
2022-09-30T09:39:23.757Z,100504.59
2022-09-30T09:41:57.527Z,100510.81
2022-09-30T09:44:31.202Z,100504.06
2022-09-30T09:47:05.484Z,100501.09
2022-09-30T09:49:35.937Z,100509.19
2022-09-30T09:52:38.534Z,100506.78
2022-09-30T09:55:06.932Z,100491.31
2022-09-30T09:57:34.665Z,100484.22
2022-09-30T10:00:27.689Z,100485.91
2022-09-30T10:03:05.753Z,100493.38
2022-09-30T10:05:39.405Z,100495.28
2022-09-30T10:08:12.539Z,100497.22
2022-09-30T10:10:45.960Z,100501.34
2022-09-30T10:13:18.897Z,100499.03
2022-09-30T10:15:47.762Z,100505.13
2022-09-30T10:18:21.578Z,100507.56
2022-09-30T10:20:55.512Z,100507.59
2022-09-30T10:23:27.834Z,100507.53
2022-09-30T10:26:04.732Z,100518.63
2022-09-30T10:28:35.149Z,100520.00
2022-09-30T10:31:05.954Z,100514.00
2022-09-30T10:33:44.917Z,100512.31
2022-09-30T10:36:16.290Z,100509.00
2022-09-30T10:38:59.935Z,100509.53
2022-09-30T10:41:32.576Z,100508.34
2022-09-30T10:44:04.109Z,100511.19
2022-09-30T10:46:35.295Z,100506.47
2022-09-30T10:49:10.149Z,100506.53
2022-09-30T10:51:37.951Z,100507.63
2022-09-30T10:54:06.739Z,100504.69
2022-09-30T10:56:38.744Z,100509.72
2022-09-30T10:59:14.062Z,100517.41
2022-09-30T11:01:46.354Z,100513.69
2022-09-30T11:04:23.234Z,100515.31
2022-09-30T11:06:56.124Z,100511.31
2022-09-30T11:09:29.914Z,100513.25
2022-09-30T11:12:01.425Z,100509.59
2022-09-30T11:14:32.889Z,100510.47
2022-09-30T11:17:07.166Z,100505.34
2022-09-30T11:19:40.955Z,100512.38
2022-09-30T11:22:24.231Z,100502.13
2022-09-30T11:24:53.708Z,100498.81
2022-09-30T11:27:24.880Z,100503.44
2022-09-30T11:30:02.325Z,100505.63
2022-09-30T11:32:44.208Z,100506.75
2022-09-30T11:35:33.784Z,100498.09
2022-09-30T11:38:11.145Z,100497.25
2022-09-30T11:40:43.128Z,100493.25
2022-09-30T11:43:20.776Z,100496.22
2022-09-30T11:46:14.897Z,100489.63
2022-09-30T11:48:58.299Z,100486.19
2022-09-30T11:51:33.735Z,100491.34
2022-09-30T11:54:12.000Z,100492.41
2022-09-30T11:56:47.002Z,100489.13
2022-09-30T11:59:19.766Z,100495.06
2022-09-30T12:01:49.856Z,100491.97
2022-09-30T12:04:21.281Z,100488.44
2022-09-30T12:06:53.238Z,100482.41
2022-09-30T12:09:24.705Z,100488.97
2022-09-30T12:11:56.573Z,100489.22
2022-09-30T12:14:27.549Z,100495.06
2022-09-30T12:16:57.624Z,100491.72
2022-09-30T12:19:30.485Z,100492.44
2022-09-30T12:22:04.168Z,100487.31
2022-09-30T12:24:36.727Z,100484.03
2022-09-30T12:27:08.126Z,100484.97
2022-09-30T12:29:56.366Z,100489.88
2022-09-30T12:32:42.608Z,100485.50
2022-09-30T12:35:24.864Z,100489.81
2022-09-30T12:38:04.663Z,100480.91
2022-09-30T12:40:53.101Z,100481.50
2022-09-30T12:43:47.851Z,100480.66
2022-09-30T12:46:20.068Z,100493.91
2022-09-30T12:48:51.105Z,100485.25
2022-09-30T12:51:25.727Z,100483.38
2022-09-30T12:53:59.708Z,100485.88
2022-09-30T12:56:29.011Z,100490.72
2022-09-30T12:59:00.426Z,100478.84
2022-09-30T13:01:32.532Z,100476.06
2022-09-30T13:04:31.960Z,100480.94
2022-09-30T13:07:14.816Z,100485.88
2022-09-30T13:10:26.349Z,100482.63
2022-09-30T13:13:13.743Z,100476.94
2022-09-30T13:15:43.851Z,100478.78
2022-09-30T13:18:49.964Z,100481.78
2022-09-30T13:21:26.316Z,100473.69
2022-09-30T13:23:57.537Z,100466.94
2022-09-30T13:26:41.669Z,100463.56
2022-09-30T13:29:35.503Z,100469.53
2022-09-30T13:32:06.702Z,100462.69
2022-09-30T13:34:50.341Z,100462.47
2022-09-30T13:37:45.261Z,100464.63
2022-09-30T13:40:43.619Z,100465.22
2022-09-30T13:43:19.700Z,100466.03
2022-09-30T13:45:48.996Z,100463.13
2022-09-30T13:48:20.533Z,100465.00
2022-09-30T13:50:49.971Z,100469.81
2022-09-30T13:53:29.080Z,100469.81
2022-09-30T13:55:57.793Z,100469.31
2022-09-30T13:59:14.409Z,100468.66
2022-09-30T14:02:36.461Z,100475.50
2022-09-30T14:05:42.085Z,100468.72
2022-09-30T14:08:31.705Z,100465.44
2022-09-30T14:11:08.746Z,100470.06
2022-09-30T14:13:51.062Z,100456.19
2022-09-30T14:16:55.273Z,100462.59
2022-09-30T14:19:42.329Z,100453.97
2022-09-30T14:22:11.279Z,100456.13
2022-09-30T14:24:40.199Z,100449.59
2022-09-30T14:27:19.398Z,100452.63
2022-09-30T14:29:54.943Z,100445.59
2022-09-30T14:32:32.489Z,100454.50
2022-09-30T14:35:06.131Z,100459.63
2022-09-30T14:37:37.868Z,100452.03
2022-09-30T14:40:13.328Z,100445.28
2022-09-30T14:42:42.574Z,100452.06
2022-09-30T14:45:11.175Z,100448.06
2022-09-30T14:47:40.517Z,100450.47
2022-09-30T14:50:12.690Z,100447.78
2022-09-30T14:52:45.112Z,100445.66
2022-09-30T14:55:23.454Z,100446.09
2022-09-30T14:57:51.657Z,100443.41
2022-09-30T15:00:29.015Z,100440.16
2022-09-30T15:02:57.092Z,100436.13
2022-09-30T15:05:27.106Z,100433.66
2022-09-30T15:07:55.665Z,100439.06
2022-09-30T15:10:25.046Z,100440.09
2022-09-30T15:12:53.938Z,100438.25
2022-09-30T15:15:28.470Z,100432.31
2022-09-30T15:17:56.801Z,100433.97
2022-09-30T15:20:30.339Z,100440.69
2022-09-30T15:22:59.893Z,100432.00
2022-09-30T15:25:28.746Z,100436.34
2022-09-30T15:27:56.631Z,100425.22
2022-09-30T15:30:26.412Z,100433.91
2022-09-30T15:32:59.806Z,100430.09
2022-09-30T15:35:29.566Z,100429.34
2022-09-30T15:38:07.358Z,100436.13
2022-09-30T15:40:48.949Z,100434.19
2022-09-30T15:43:18.098Z,100434.16
2022-09-30T15:45:48.532Z,100433.69
2022-09-30T15:48:35.950Z,100430.25
2022-09-30T15:51:25.725Z,100436.22
2022-09-30T15:53:53.751Z,100432.19
2022-09-30T15:56:26.633Z,100431.63
2022-09-30T15:58:58.594Z,100431.31
2022-09-30T16:01:27.832Z,100436.50
2022-09-30T16:03:56.855Z,100433.50
2022-09-30T16:06:32.509Z,100430.25
2022-09-30T16:09:03.431Z,100432.72
2022-09-30T16:11:34.733Z,100434.63
2022-09-30T16:14:03.650Z,100435.94
2022-09-30T16:16:33.625Z,100433.50
2022-09-30T16:19:03.073Z,100431.94
2022-09-30T16:21:50.449Z,100437.31
2022-09-30T16:24:46.360Z,100435.97
2022-09-30T16:27:30.170Z,100437.03
2022-09-30T16:29:58.887Z,100439.47
2022-09-30T16:32:28.156Z,100434.84
2022-09-30T16:34:56.166Z,100436.22
2022-09-30T16:37:25.413Z,100434.34
2022-09-30T16:39:53.164Z,100432.13
2022-09-30T16:42:21.431Z,100426.75
2022-09-30T16:44:49.390Z,100429.47
2022-09-30T16:47:19.310Z,100440.28
2022-09-30T16:49:47.766Z,100437.84
2022-09-30T16:52:15.659Z,100440.03
2022-09-30T16:54:44.945Z,100437.03
2022-09-30T16:57:14.387Z,100435.44
2022-09-30T16:59:42.170Z,100434.88
2022-09-30T17:02:15.227Z,100440.84
2022-09-30T17:04:45.307Z,100438.41
2022-09-30T17:07:14.879Z,100429.47
2022-09-30T17:09:46.938Z,100425.41
2022-09-30T17:12:14.643Z,100437.53
2022-09-30T17:14:43.688Z,100441.09
2022-09-30T17:17:13.670Z,100440.78
2022-09-30T17:19:42.105Z,100427.81
2022-09-30T17:22:09.887Z,100436.41
2022-09-30T17:24:37.609Z,100446.72
2022-09-30T17:27:07.797Z,100434.63
2022-09-30T17:29:41.742Z,100431.94
2022-09-30T17:32:10.420Z,100436.53
2022-09-30T17:34:38.245Z,100440.28
2022-09-30T17:39:39.124Z,100438.69
2022-09-30T17:42:27.180Z,100432.94
2022-09-30T17:44:56.402Z,100434.81
2022-09-30T17:47:24.185Z,100440.78
2022-09-30T17:49:52.308Z,100445.66
2022-09-30T17:52:20.784Z,100438.38
2022-09-30T17:54:52.243Z,100440.28
2022-09-30T17:57:22.287Z,100438.69
2022-09-30T17:59:49.974Z,100446.81
2022-09-30T18:02:18.213Z,100452.25
2022-09-30T18:04:46.141Z,100447.66
2022-09-30T18:07:13.950Z,100451.97
2022-09-30T18:09:41.718Z,100451.47
2022-09-30T18:12:10.925Z,100452.78
2022-09-30T18:14:39.976Z,100455.25
2022-09-30T18:17:07.704Z,100460.38
2022-09-30T18:19:36.130Z,100462.84
2022-09-30T18:22:05.303Z,100464.75
2022-09-30T18:24:50.807Z,100464.75
2022-09-30T18:27:21.269Z,100463.66
2022-09-30T18:29:50.397Z,100466.66
2022-09-30T18:32:18.361Z,100455.84
2022-09-30T18:34:46.077Z,100462.06
2022-09-30T18:37:13.805Z,100464.25
2022-09-30T18:39:41.605Z,100456.41
2022-09-30T18:42:09.330Z,100450.19
2022-09-30T18:44:38.053Z,100450.44
2022-09-30T18:47:10.238Z,100451.56
2022-09-30T18:49:37.985Z,100443.72
2022-09-30T18:52:05.702Z,100449.69
2022-09-30T18:54:35.196Z,100443.22
2022-09-30T18:57:06.454Z,100441.56
2022-09-30T18:59:34.216Z,100446.72
2022-09-30T19:02:03.931Z,100438.88
2022-09-30T19:04:33.083Z,100431.28
2022-09-30T19:07:00.803Z,100424.56
2022-09-30T19:09:29.689Z,100430.50
2022-09-30T19:11:58.076Z,100425.09
2022-09-30T19:14:25.811Z,100429.72
2022-09-30T19:16:53.593Z,100417.00
2022-09-30T19:19:23.153Z,100419.69
2022-09-30T19:21:52.275Z,100416.19
2022-09-30T19:24:22.978Z,100417.25
2022-09-30T19:26:54.459Z,100417.28
2022-09-30T19:29:22.224Z,100415.94
2022-09-30T19:31:50.006Z,100416.47
2022-09-30T19:34:28.639Z,100422.13
2022-09-30T19:37:01.062Z,100413.75
2022-09-30T19:39:40.523Z,100409.16
2022-09-30T19:42:18.166Z,100417.00
2022-09-30T19:44:45.885Z,100418.66
2022-09-30T19:47:13.666Z,100411.63
2022-09-30T19:49:41.378Z,100412.44
2022-09-30T19:52:19.460Z,100411.34
2022-09-30T19:54:50.722Z,100410.81
2022-09-30T19:57:18.462Z,100408.63
2022-09-30T19:59:46.345Z,100401.63
2022-09-30T20:02:14.141Z,100394.06
2022-09-30T20:04:43.660Z,100399.22
2022-09-30T20:07:15.949Z,100397.84
2022-09-30T20:09:43.850Z,100395.69
2022-09-30T20:12:11.743Z,100391.09
2022-09-30T20:14:57.181Z,100388.41
2022-09-30T20:17:25.030Z,100388.41
2022-09-30T20:20:06.746Z,100381.13
2022-09-30T20:22:35.854Z,100382.47
2022-09-30T20:25:07.677Z,100382.16
2022-09-30T20:27:35.386Z,100381.38
2022-09-30T20:30:04.805Z,100377.31
2022-09-30T20:32:32.488Z,100382.16
2022-09-30T20:35:00.241Z,100375.34
2022-09-30T20:37:31.020Z,100381.19
2022-09-30T20:40:00.199Z,100375.63
2022-09-30T20:42:32.643Z,100378.38
2022-09-30T20:45:01.080Z,100374.34
2022-09-30T20:47:30.368Z,100367.25
2022-09-30T20:49:58.567Z,100375.16
2022-09-30T20:52:26.775Z,100378.34
2022-09-30T20:54:54.485Z,100379.34
2022-09-30T20:57:23.657Z,100374.81
2022-09-30T20:59:51.761Z,100378.91
2022-09-30T21:02:24.139Z,100370.78
2022-09-30T21:04:52.723Z,100368.06
2022-09-30T21:07:21.062Z,100365.63
2022-09-30T21:09:48.942Z,100364.56
2022-09-30T21:12:17.215Z,100358.59
2022-09-30T21:14:47.374Z,100364.53
2022-09-30T21:17:15.800Z,100361.28
2022-09-30T21:19:43.629Z,100359.34
2022-09-30T21:22:11.534Z,100349.63
2022-09-30T21:24:39.335Z,100352.94
2022-09-30T21:27:07.937Z,100350.53
2022-09-30T21:29:35.755Z,100355.59
2022-09-30T21:32:09.417Z,100352.31
2022-09-30T21:34:37.226Z,100347.13
2022-09-30T21:37:05.211Z,100347.72
2022-09-30T21:39:32.991Z,100343.13
2022-09-30T21:42:00.815Z,100332.91
2022-09-30T21:44:28.741Z,100337.25
2022-09-30T21:46:56.624Z,100334.19
2022-09-30T21:49:25.848Z,100336.44
2022-09-30T21:51:53.911Z,100338.31
2022-09-30T21:54:23.237Z,100330.22
2022-09-30T21:56:51.405Z,100326.13
2022-09-30T21:59:19.988Z,100324.97
2022-09-30T22:01:47.780Z,100316.56
2022-09-30T22:04:15.603Z,100321.16
2022-09-30T22:06:45.362Z,100318.50
2022-09-30T22:09:13.148Z,100316.72
2022-09-30T22:11:42.366Z,100308.75
2022-09-30T22:14:10.393Z,100303.88
2022-09-30T22:16:38.296Z,100300.25
2022-09-30T22:19:10.699Z,100305.81
2022-09-30T22:21:38.873Z,100308.53
2022-09-30T22:24:11.557Z,100301.28
2022-09-30T22:26:40.035Z,100298.78
2022-09-30T22:29:11.855Z,100300.94
2022-09-30T22:31:40.283Z,100293.78
2022-09-30T22:34:26.273Z,100301.94
2022-09-30T22:37:11.740Z,100300.16
2022-09-30T22:39:40.841Z,100300.72
2022-09-30T22:42:08.664Z,100302.38
2022-09-30T22:44:38.029Z,100295.03
2022-09-30T22:47:06.414Z,100296.72
2022-09-30T22:49:34.205Z,100290.25
2022-09-30T22:52:03.533Z,100287.81
2022-09-30T22:54:31.421Z,100283.25
2022-09-30T22:57:00.529Z,100276.75
2022-09-30T22:59:31.279Z,100272.38
2022-09-30T23:01:59.135Z,100272.13
2022-09-30T23:04:27.022Z,100263.72
2022-09-30T23:06:56.277Z,100262.47
2022-09-30T23:09:24.784Z,100264.63
2022-09-30T23:11:54.034Z,100258.41
2022-09-30T23:14:23.255Z,100258.41
2022-09-30T23:16:51.588Z,100251.63
2022-09-30T23:19:19.866Z,100254.03
2022-09-30T23:21:47.726Z,100245.41
2022-09-30T23:24:15.614Z,100246.22
2022-09-30T23:26:43.441Z,100237.25
2022-09-30T23:29:12.546Z,100245.53
2022-09-30T23:31:41.972Z,100242.88
2022-09-30T23:34:09.992Z,100240.84
2022-09-30T23:36:38.488Z,100239.88
2022-09-30T23:39:09.229Z,100239.06
2022-09-30T23:41:39.937Z,100235.31
2022-09-30T23:44:09.898Z,100234.72
2022-09-30T23:46:37.729Z,100222.56
2022-09-30T23:49:06.878Z,100231.31
2022-09-30T23:51:34.935Z,100224.78
2022-09-30T23:54:03.213Z,100218.97
2022-09-30T23:56:32.045Z,100218.78
2022-09-30T23:58:59.822Z,100215.97
